createdAt,value
2022-11-14T00:01:42.029Z,6.17
2022-11-14T00:04:29.801Z,6.16
2022-11-14T00:07:16.639Z,6.19
2022-11-14T00:10:03.603Z,6.19
2022-11-14T00:12:50.494Z,6.15
2022-11-14T00:15:36.992Z,6.13
2022-11-14T00:18:24.955Z,6.12
2022-11-14T00:21:11.169Z,5.99
2022-11-14T00:23:57.369Z,6.00
2022-11-14T00:26:43.791Z,5.99
2022-11-14T00:29:29.976Z,5.94
2022-11-14T00:32:16.460Z,5.89
2022-11-14T00:35:07.034Z,5.80
2022-11-14T00:37:53.536Z,5.72
2022-11-14T00:40:39.791Z,5.73
2022-11-14T00:43:26.279Z,5.71
2022-11-14T00:46:13.008Z,5.75
2022-11-14T00:48:59.724Z,5.70
2022-11-14T00:51:47.591Z,5.68
2022-11-14T00:54:33.984Z,5.74
2022-11-14T00:57:20.422Z,5.80
2022-11-14T01:00:10.077Z,5.79
2022-11-14T01:02:58.112Z,5.84
2022-11-14T01:05:48.262Z,5.87
2022-11-14T01:08:35.898Z,5.78
2022-11-14T01:11:23.758Z,5.75
2022-11-14T01:14:10.634Z,5.79
2022-11-14T01:16:57.203Z,5.79
2022-11-14T01:19:43.698Z,5.73
2022-11-14T01:22:30.528Z,5.73
2022-11-14T01:25:18.054Z,5.70
2022-11-14T01:28:07.506Z,5.71
2022-11-14T01:30:53.647Z,5.68
2022-11-14T01:33:40.179Z,5.69
2022-11-14T01:36:26.501Z,5.65
2022-11-14T01:39:12.591Z,5.64
2022-11-14T01:42:00.157Z,5.59
2022-11-14T01:44:49.381Z,5.66
2022-11-14T01:47:36.423Z,5.69
2022-11-14T01:50:22.777Z,5.64
2022-11-14T01:53:09.287Z,5.56
2022-11-14T01:56:00.722Z,5.58
2022-11-14T01:58:55.448Z,5.55
2022-11-14T02:01:47.859Z,5.52
2022-11-14T02:04:41.136Z,5.48
2022-11-14T02:07:32.327Z,5.49
2022-11-14T02:10:21.412Z,5.43
2022-11-14T02:13:08.445Z,5.42
2022-11-14T02:15:56.123Z,5.40
2022-11-14T02:18:42.387Z,5.43
2022-11-14T02:21:29.945Z,5.48
2022-11-14T02:24:16.263Z,5.46
2022-11-14T02:27:02.676Z,5.46
2022-11-14T02:29:49.298Z,5.42
2022-11-14T02:33:09.938Z,5.45
2022-11-14T02:35:42.303Z,5.45
2022-11-14T02:38:30.218Z,5.47
2022-11-14T02:41:17.062Z,5.47
2022-11-14T02:44:04.240Z,5.47
2022-11-14T02:46:50.654Z,5.41
2022-11-14T02:49:36.722Z,5.32
2022-11-14T02:52:23.247Z,5.24
2022-11-14T02:55:11.038Z,5.25
2022-11-14T02:57:57.357Z,5.14
2022-11-14T03:01:05.915Z,5.12
2022-11-14T03:03:50.173Z,5.19
2022-11-14T03:06:36.563Z,5.15
2022-11-14T03:09:22.917Z,5.15
2022-11-14T03:12:10.919Z,5.10
2022-11-14T03:14:57.235Z,4.89
2022-11-14T03:17:43.815Z,4.74
2022-11-14T03:20:30.015Z,4.87
2022-11-14T03:23:16.407Z,4.80
2022-11-14T03:26:08.062Z,4.77
2022-11-14T03:28:55.773Z,4.69
2022-11-14T03:31:42.123Z,4.65
2022-11-14T03:34:28.185Z,4.68
2022-11-14T03:37:14.849Z,4.65
2022-11-14T03:40:01.326Z,4.64
2022-11-14T03:42:49.678Z,4.67
2022-11-14T03:45:38.110Z,4.80
2022-11-14T03:48:24.595Z,4.82
2022-11-14T03:51:10.597Z,4.90
2022-11-14T03:53:56.735Z,4.96
2022-11-14T03:56:43.378Z,4.90
2022-11-14T03:59:29.942Z,4.89
2022-11-14T04:02:17.557Z,5.00
2022-11-14T04:05:04.722Z,5.02
2022-11-14T04:07:51.592Z,4.98
2022-11-14T04:10:37.636Z,4.91
2022-11-14T04:13:24.310Z,5.00
2022-11-14T04:16:10.270Z,4.99
2022-11-14T04:18:58.313Z,4.91
2022-11-14T04:21:44.488Z,4.91
2022-11-14T04:24:30.914Z,4.95
2022-11-14T04:27:17.127Z,4.93
2022-11-14T04:30:05.032Z,4.87
2022-11-14T04:32:51.515Z,4.77
2022-11-14T04:35:39.240Z,4.76
2022-11-14T04:38:25.975Z,4.78
2022-11-14T04:41:12.276Z,4.76
2022-11-14T04:43:58.531Z,4.68
2022-11-14T04:46:44.934Z,4.67
2022-11-14T04:49:31.230Z,4.60
2022-11-14T04:52:18.707Z,4.55
2022-11-14T04:55:06.051Z,4.55
2022-11-14T04:57:55.794Z,4.54
2022-11-14T05:00:41.996Z,4.54
2022-11-14T05:03:29.152Z,4.52
2022-11-14T05:06:15.650Z,4.51
2022-11-14T05:09:03.814Z,4.51
2022-11-14T05:11:49.886Z,4.53
2022-11-14T05:14:36.420Z,4.53
2022-11-14T05:17:22.795Z,4.59
2022-11-14T05:20:11.276Z,4.60
2022-11-14T05:22:58.493Z,4.63
2022-11-14T05:25:46.648Z,4.63
2022-11-14T05:28:33.987Z,4.62
2022-11-14T05:31:20.645Z,4.61
2022-11-14T05:34:07.212Z,4.53
2022-11-14T05:36:53.467Z,4.47
2022-11-14T05:39:40.237Z,4.47
2022-11-14T05:42:28.700Z,4.40
2022-11-14T05:45:15.139Z,4.39
2022-11-14T05:48:01.477Z,4.40
2022-11-14T05:50:47.570Z,4.37
2022-11-14T05:53:34.792Z,4.28
2022-11-14T05:56:21.316Z,4.28
2022-11-14T05:59:09.311Z,4.21
2022-11-14T06:01:56.239Z,4.21
2022-11-14T06:04:43.604Z,4.23
2022-11-14T06:07:30.211Z,4.23
2022-11-14T06:10:16.966Z,4.25
2022-11-14T06:13:03.430Z,4.21
2022-11-14T06:15:51.410Z,4.18
2022-11-14T06:18:38.434Z,4.19
2022-11-14T06:21:26.622Z,4.24
2022-11-14T06:24:13.111Z,4.26
2022-11-14T06:27:00.255Z,4.28
2022-11-14T06:29:47.432Z,4.32
2022-11-14T06:32:35.583Z,4.35
2022-11-14T06:35:22.570Z,4.31
2022-11-14T06:38:09.475Z,4.25
2022-11-14T06:41:03.268Z,4.28
2022-11-14T06:43:52.927Z,4.28
2022-11-14T06:46:39.427Z,4.30
2022-11-14T06:49:27.663Z,4.33
2022-11-14T06:52:13.955Z,4.36
2022-11-14T06:55:00.385Z,4.44
2022-11-14T06:57:54.104Z,4.45
2022-11-14T07:00:40.388Z,4.51
2022-11-14T07:03:26.834Z,4.45
2022-11-14T07:06:16.507Z,4.52
2022-11-14T07:09:02.800Z,4.55
2022-11-14T07:11:49.375Z,4.59
2022-11-14T07:14:35.687Z,4.59
2022-11-14T07:17:22.050Z,4.66
2022-11-14T07:20:10.685Z,4.51
2022-11-14T07:22:58.436Z,4.47
2022-11-14T07:25:44.626Z,4.43
2022-11-14T07:28:32.233Z,4.44
2022-11-14T07:31:20.321Z,4.56
2022-11-14T07:34:06.510Z,4.61
2022-11-14T07:36:54.951Z,4.67
2022-11-14T07:39:42.600Z,4.75
2022-11-14T07:42:29.821Z,4.82
2022-11-14T07:45:16.463Z,4.81
2022-11-14T07:48:02.912Z,4.69
2022-11-14T07:50:49.331Z,4.67
2022-11-14T07:53:36.224Z,4.67
2022-11-14T07:56:25.796Z,4.79
2022-11-14T07:59:12.486Z,4.88
2022-11-14T08:01:58.984Z,4.88
2022-11-14T08:04:45.165Z,4.91
2022-11-14T08:07:31.569Z,5.05
2022-11-14T08:10:18.354Z,5.08
2022-11-14T08:13:31.122Z,5.03
2022-11-14T08:16:14.402Z,4.98
2022-11-14T08:19:01.412Z,5.11
2022-11-14T08:21:47.652Z,5.16
2022-11-14T08:24:33.890Z,5.25
2022-11-14T08:27:20.476Z,5.28
2022-11-14T08:30:10.321Z,5.31
2022-11-14T08:32:57.102Z,5.44
2022-11-14T08:35:43.600Z,5.52
2022-11-14T08:38:32.148Z,5.66
2022-11-14T08:41:18.704Z,5.92
2022-11-14T08:44:05.250Z,6.06
2022-11-14T08:46:53.318Z,6.12
2022-11-14T08:49:39.907Z,6.12
2022-11-14T08:52:25.995Z,6.19
2022-11-14T08:55:12.550Z,6.24
2022-11-14T08:57:59.030Z,6.11
2022-11-14T09:00:45.524Z,6.25
2022-11-14T09:03:34.114Z,6.33
2022-11-14T09:06:20.397Z,6.44
2022-11-14T09:09:06.766Z,6.45
2022-11-14T09:11:52.900Z,6.64
2022-11-14T09:14:39.527Z,6.77
2022-11-14T09:17:26.123Z,6.83
2022-11-14T09:20:15.224Z,6.91
2022-11-14T09:23:03.383Z,7.11
2022-11-14T09:25:49.777Z,7.09
2022-11-14T09:28:38.214Z,7.11
2022-11-14T09:31:24.638Z,7.21
2022-11-14T09:34:11.210Z,7.24
2022-11-14T09:36:58.775Z,7.39
2022-11-14T09:39:45.060Z,7.62
2022-11-14T09:42:59.430Z,7.87
2022-11-14T09:45:52.131Z,8.18
2022-11-14T09:48:38.847Z,8.37
2022-11-14T09:51:31.815Z,8.59
2022-11-14T09:54:24.425Z,8.89
2022-11-14T09:57:17.674Z,9.15
2022-11-14T10:00:15.182Z,9.39
2022-11-14T10:03:17.513Z,9.51
2022-11-14T10:06:25.589Z,9.58
2022-11-14T10:09:50.828Z,9.45
2022-11-14T10:12:53.995Z,9.66
2022-11-14T10:15:49.760Z,9.84
2022-11-14T10:19:11.031Z,9.79
2022-11-14T10:22:18.272Z,10.08
2022-11-14T10:25:23.985Z,10.34
2022-11-14T10:28:39.286Z,10.17
2022-11-14T10:31:44.105Z,10.27
2022-11-14T10:34:39.135Z,10.26
2022-11-14T10:37:33.367Z,10.43
2022-11-14T10:40:25.944Z,10.64
2022-11-14T10:43:32.999Z,10.74
2022-11-14T10:46:26.384Z,11.06
2022-11-14T10:49:20.650Z,11.12
2022-11-14T10:52:14.725Z,11.32
2022-11-14T10:55:10.310Z,11.36
2022-11-14T10:57:58.047Z,11.41
2022-11-14T11:00:44.701Z,11.54
2022-11-14T11:03:43.543Z,11.93
2022-11-14T11:06:30.158Z,12.22
2022-11-14T11:09:44.884Z,12.36
2022-11-14T11:12:46.086Z,12.03
2022-11-14T11:15:41.814Z,12.06
2022-11-14T11:18:31.141Z,12.10
2022-11-14T11:21:20.562Z,11.81
2022-11-14T11:24:09.182Z,11.75
2022-11-14T11:27:14.561Z,12.24
2022-11-14T11:30:17.824Z,12.63
2022-11-14T11:33:25.286Z,12.55
2022-11-14T11:36:19.447Z,12.68
2022-11-14T11:39:05.899Z,12.51
2022-11-14T11:42:12.528Z,12.24
2022-11-14T11:45:04.258Z,11.84
2022-11-14T11:48:00.969Z,11.79
2022-11-14T11:50:50.371Z,11.79
2022-11-14T11:53:42.254Z,12.00
2022-11-14T11:56:32.089Z,12.01
2022-11-14T11:59:33.551Z,11.96
2022-11-14T12:02:25.015Z,11.98
2022-11-14T12:05:16.836Z,12.08
2022-11-14T12:08:10.746Z,11.94
2022-11-14T12:10:59.358Z,11.88
2022-11-14T12:14:38.333Z,12.06
2022-11-14T12:18:09.353Z,12.32
2022-11-14T12:21:12.435Z,12.42
2022-11-14T12:25:03.405Z,12.38
2022-11-14T12:28:11.752Z,12.76
2022-11-14T12:31:06.416Z,12.83
2022-11-14T12:34:00.327Z,12.74
2022-11-14T12:36:47.242Z,12.69
2022-11-14T12:39:33.929Z,12.63
2022-11-14T12:42:22.215Z,12.66
2022-11-14T12:46:02.539Z,12.73
2022-11-14T12:48:49.758Z,12.88
2022-11-14T12:51:51.772Z,12.80
2022-11-14T12:54:53.609Z,13.21
2022-11-14T12:57:50.249Z,13.27
2022-11-14T13:01:04.716Z,13.32
2022-11-14T13:04:16.739Z,13.41
2022-11-14T13:07:34.532Z,13.66
2022-11-14T13:10:29.657Z,13.87
2022-11-14T13:13:39.782Z,14.33
2022-11-14T13:16:51.337Z,14.62
2022-11-14T13:20:04.912Z,14.58
2022-11-14T13:22:51.559Z,14.45
2022-11-14T13:25:37.969Z,14.20
2022-11-14T13:28:49.379Z,14.31
2022-11-14T13:31:50.072Z,14.11
2022-11-14T13:34:49.624Z,14.07
2022-11-14T13:38:03.941Z,13.80
2022-11-14T13:41:09.316Z,13.61
2022-11-14T13:44:20.690Z,13.54
2022-11-14T13:48:11.372Z,13.52
2022-11-14T13:51:21.803Z,13.46
2022-11-14T13:54:17.698Z,13.22
2022-11-14T13:57:21.412Z,13.14
2022-11-14T14:00:20.427Z,13.07
2022-11-14T14:03:33.412Z,13.02
2022-11-14T14:06:42.369Z,13.01
2022-11-14T14:09:44.240Z,13.21
2022-11-14T14:12:53.809Z,13.19
2022-11-14T14:15:50.147Z,13.27
2022-11-14T14:18:49.288Z,13.31
2022-11-14T14:21:52.833Z,13.26
2022-11-14T14:24:59.019Z,13.07
2022-11-14T14:28:05.861Z,13.12
2022-11-14T14:31:12.934Z,12.99
2022-11-14T14:33:59.517Z,12.98
2022-11-14T14:36:52.195Z,12.99
2022-11-14T14:39:38.642Z,12.87
2022-11-14T14:42:30.850Z,12.96
2022-11-14T14:45:24.242Z,13.04
2022-11-14T14:48:15.238Z,13.15
2022-11-14T14:51:09.328Z,13.19
2022-11-14T14:53:56.010Z,13.16
2022-11-14T14:56:54.091Z,13.28
2022-11-14T14:59:42.066Z,13.31
2022-11-14T15:02:29.631Z,13.24
2022-11-14T15:05:29.968Z,13.12
2022-11-14T15:08:17.439Z,13.14
2022-11-14T15:11:05.640Z,13.17
2022-11-14T15:13:56.817Z,13.22
2022-11-14T15:16:44.878Z,13.04
2022-11-14T15:19:40.479Z,12.97
2022-11-14T15:22:29.158Z,12.69
2022-11-14T15:25:20.336Z,12.42
2022-11-14T15:28:19.385Z,12.34
2022-11-14T15:31:06.404Z,12.26
2022-11-14T15:34:06.692Z,12.25
2022-11-14T15:37:23.066Z,12.18
2022-11-14T15:40:21.445Z,12.23
2022-11-14T15:43:36.913Z,12.25
2022-11-14T15:46:47.104Z,12.33
2022-11-14T15:49:33.648Z,12.30
2022-11-14T15:52:25.366Z,12.23
2022-11-14T15:55:16.466Z,12.28
2022-11-14T15:58:27.222Z,12.31
2022-11-14T16:01:26.585Z,12.28
2022-11-14T16:04:18.037Z,12.20
2022-11-14T16:07:05.772Z,12.09
2022-11-14T16:09:52.390Z,12.02
2022-11-14T16:12:38.764Z,12.07
2022-11-14T16:15:26.455Z,12.00
2022-11-14T16:18:12.915Z,12.02
2022-11-14T16:20:59.747Z,12.16
2022-11-14T16:23:46.185Z,12.12
2022-11-14T16:26:33.120Z,12.08
2022-11-14T16:29:19.519Z,11.96
2022-11-14T16:32:10.489Z,12.11
2022-11-14T16:34:56.715Z,12.12
2022-11-14T16:37:43.835Z,12.10
2022-11-14T16:40:30.486Z,12.14
2022-11-14T16:43:38.128Z,12.12
2022-11-14T16:46:24.938Z,12.11
2022-11-14T16:49:15.870Z,12.12
2022-11-14T16:52:06.971Z,12.17
2022-11-14T16:55:02.534Z,12.17
2022-11-14T16:57:49.822Z,12.19
2022-11-14T17:00:36.364Z,12.12
2022-11-14T17:03:23.249Z,12.17
2022-11-14T17:06:10.791Z,12.14
2022-11-14T17:08:59.487Z,12.19
2022-11-14T17:11:46.176Z,12.16
2022-11-14T17:14:33.039Z,12.24
2022-11-14T17:17:19.354Z,12.32
2022-11-14T17:20:08.504Z,12.33
2022-11-14T17:22:56.379Z,12.32
2022-11-14T17:25:43.141Z,12.33
2022-11-14T17:28:29.979Z,12.35
2022-11-14T17:31:17.415Z,12.28
2022-11-14T17:34:03.556Z,12.27
2022-11-14T17:36:49.820Z,12.24
2022-11-14T17:39:37.412Z,12.20
2022-11-14T17:42:23.806Z,12.18
2022-11-14T17:45:10.201Z,12.22
2022-11-14T17:47:56.600Z,12.27
2022-11-14T17:50:43.116Z,12.29
2022-11-14T17:53:29.884Z,12.36
2022-11-14T17:56:23.411Z,12.43
2022-11-14T17:59:12.633Z,12.38
2022-11-14T18:02:00.317Z,12.42
2022-11-14T18:04:47.902Z,12.44
2022-11-14T18:07:34.483Z,12.45
2022-11-14T18:10:20.947Z,12.47
2022-11-14T18:13:09.034Z,12.51
2022-11-14T18:16:00.807Z,12.50
2022-11-14T18:18:47.333Z,12.54
2022-11-14T18:21:33.531Z,12.54
2022-11-14T18:24:20.078Z,12.47
2022-11-14T18:27:06.230Z,12.50
2022-11-14T18:29:54.094Z,12.60
2022-11-14T18:32:40.437Z,12.57
2022-11-14T18:35:26.819Z,12.46
2022-11-14T18:38:13.160Z,12.47
2022-11-14T18:41:01.456Z,12.44
2022-11-14T18:43:48.315Z,12.50
2022-11-14T18:46:37.582Z,12.48
2022-11-14T18:49:25.153Z,12.54
2022-11-14T18:52:16.842Z,12.50
2022-11-14T18:55:05.311Z,12.53
2022-11-14T18:57:52.379Z,12.43
2022-11-14T19:00:38.872Z,12.46
2022-11-14T19:03:28.707Z,12.50
2022-11-14T19:06:15.956Z,12.61
2022-11-14T19:09:10.890Z,12.68
2022-11-14T19:12:15.839Z,12.69
2022-11-14T19:15:02.244Z,12.62
2022-11-14T19:17:48.694Z,12.65
2022-11-14T19:20:36.377Z,12.66
2022-11-14T19:23:22.844Z,12.78
2022-11-14T19:26:10.461Z,12.74
2022-11-14T19:29:01.719Z,12.73
2022-11-14T19:31:48.492Z,12.77
2022-11-14T19:34:34.930Z,12.75
2022-11-14T19:37:22.861Z,12.77
2022-11-14T19:40:10.674Z,12.76
2022-11-14T19:43:00.310Z,12.76
2022-11-14T19:45:47.427Z,12.61
2022-11-14T19:48:35.090Z,12.53
2022-11-14T19:51:22.391Z,12.57
2022-11-14T19:54:11.133Z,12.70
2022-11-14T19:56:57.341Z,12.65
2022-11-14T19:59:43.914Z,12.66
2022-11-14T20:02:30.135Z,12.67
2022-11-14T20:05:16.746Z,12.62
2022-11-14T20:08:03.450Z,12.45
2022-11-14T20:10:59.402Z,12.30
2022-11-14T20:13:46.666Z,12.18
2022-11-14T20:16:36.228Z,12.21
2022-11-14T20:19:22.962Z,12.14
2022-11-14T20:22:10.230Z,12.04
2022-11-14T20:24:56.849Z,12.03
2022-11-14T20:27:44.622Z,12.00
2022-11-14T20:30:31.080Z,11.89
2022-11-14T20:33:17.980Z,11.91
2022-11-14T20:36:08.746Z,11.96
2022-11-14T20:38:55.814Z,11.98
2022-11-14T20:41:42.255Z,11.96
2022-11-14T20:44:29.840Z,11.98
2022-11-14T20:47:17.375Z,12.00
2022-11-14T20:50:04.323Z,12.02
2022-11-14T20:52:50.588Z,11.95
2022-11-14T20:55:36.716Z,11.80
2022-11-14T20:58:23.384Z,11.81
2022-11-14T21:01:12.071Z,11.74
2022-11-14T21:03:58.463Z,11.57
2022-11-14T21:06:44.655Z,11.68
2022-11-14T21:09:31.148Z,11.64
2022-11-14T21:12:17.281Z,11.71
2022-11-14T21:15:04.746Z,11.66
2022-11-14T21:17:52.460Z,11.59
2022-11-14T21:20:38.617Z,11.48
2022-11-14T21:23:25.088Z,11.52
2022-11-14T21:26:13.961Z,11.53
2022-11-14T21:29:04.792Z,11.61
2022-11-14T21:31:51.160Z,11.53
2022-11-14T21:34:38.942Z,11.55
2022-11-14T21:37:25.407Z,11.59
2022-11-14T21:40:12.987Z,11.44
2022-11-14T21:42:59.042Z,11.30
2022-11-14T21:45:54.981Z,11.21
2022-11-14T21:48:41.872Z,11.12
2022-11-14T21:51:29.743Z,11.09
2022-11-14T21:54:16.642Z,11.09
2022-11-14T21:57:08.490Z,11.07
2022-11-14T21:59:56.081Z,10.84
2022-11-14T22:03:00.850Z,10.77
2022-11-14T22:05:47.100Z,10.76
2022-11-14T22:08:34.618Z,10.79
2022-11-14T22:11:21.484Z,10.73
2022-11-14T22:14:08.539Z,10.72
2022-11-14T22:16:57.965Z,10.57
2022-11-14T22:19:44.439Z,10.55
2022-11-14T22:22:31.091Z,10.44
2022-11-14T22:25:19.100Z,10.44
2022-11-14T22:28:05.551Z,10.45
2022-11-14T22:31:02.646Z,10.55
2022-11-14T22:33:52.240Z,10.55
2022-11-14T22:36:38.598Z,10.64
2022-11-14T22:39:25.170Z,10.71
2022-11-14T22:42:13.172Z,10.77
2022-11-14T22:44:59.386Z,10.79
2022-11-14T22:47:45.797Z,10.80
2022-11-14T22:50:32.262Z,10.83
2022-11-14T22:53:18.884Z,10.77
2022-11-14T22:56:08.208Z,10.74
2022-11-14T22:58:58.721Z,10.72
2022-11-14T23:01:45.560Z,10.66
2022-11-14T23:04:32.098Z,10.76
2022-11-14T23:07:18.356Z,10.70
2022-11-14T23:10:06.010Z,10.75
2022-11-14T23:12:52.555Z,10.84
2022-11-14T23:15:46.510Z,10.76
2022-11-14T23:18:32.741Z,10.83
2022-11-14T23:21:22.360Z,10.87
2022-11-14T23:24:14.426Z,10.93
2022-11-14T23:27:01.155Z,10.91
2022-11-14T23:29:47.379Z,10.93
2022-11-14T23:32:34.622Z,11.01
2022-11-14T23:35:20.883Z,11.00
2022-11-14T23:38:07.404Z,11.05
2022-11-14T23:40:55.080Z,11.09
2022-11-14T23:43:41.355Z,11.32
2022-11-14T23:46:27.745Z,11.34
2022-11-14T23:49:15.462Z,11.29
2022-11-14T23:52:01.945Z,11.25
2022-11-14T23:54:48.305Z,11.24
2022-11-14T23:57:34.627Z,11.26
